createdAt,value
2019-03-25T00:01:26.307Z,6.7
2019-03-25T00:11:26.466Z,5.5
2019-03-25T00:21:26.782Z,5.8
2019-03-25T00:31:26.462Z,5.2
2019-03-25T00:41:26.466Z,6.3
2019-03-25T00:51:26.213Z,6.2
2019-03-25T01:01:26.118Z,6.8
2019-03-25T01:11:27.626Z,7.1
2019-03-25T01:21:26.948Z,6.1
2019-03-25T01:31:26.916Z,6.4
2019-03-25T01:41:26.573Z,6.4
2019-03-25T01:51:26.930Z,6.1
2019-03-25T02:01:26.909Z,6.8
2019-03-25T02:11:26.472Z,6.1
2019-03-25T02:21:27.628Z,5.8
2019-03-25T02:31:29.229Z,6.3
2019-03-25T02:41:26.830Z,6.7
2019-03-25T02:51:27.067Z,6.9
2019-03-25T03:01:26.617Z,7.8
2019-03-25T03:11:27.743Z,8.0
2019-03-25T03:21:26.546Z,8.2
2019-03-25T03:31:26.563Z,8.4
2019-03-25T03:41:26.653Z,9.5
2019-03-25T03:51:27.721Z,11.3
2019-03-25T04:01:26.540Z,12.6
2019-03-25T04:11:26.218Z,12.4
2019-03-25T04:21:27.291Z,13.3
2019-03-25T04:31:26.535Z,12.5
2019-03-25T04:41:26.153Z,11.7
2019-03-25T04:51:26.957Z,12.8
2019-03-25T05:01:26.988Z,12.8
2019-03-25T05:11:30.673Z,13.0
2019-03-25T05:21:25.901Z,13.4
2019-03-25T05:31:26.528Z,17.8
2019-03-25T05:41:26.145Z,20.6
2019-03-25T05:51:26.594Z,19.0
2019-03-25T06:01:26.775Z,20.1
2019-03-25T06:11:26.545Z,18.8
2019-03-25T06:21:26.367Z,18.8
2019-03-25T06:31:26.948Z,16.0
2019-03-25T06:41:26.915Z,18.1
2019-03-25T06:51:28.898Z,18.4
2019-03-25T07:01:27.010Z,16.9
2019-03-25T07:11:27.260Z,16.8
2019-03-25T07:21:26.227Z,16.1
2019-03-25T07:31:29.958Z,18.9
2019-03-25T07:41:27.788Z,14.6
2019-03-25T07:51:29.028Z,13.8
2019-03-25T08:01:26.623Z,10.7
2019-03-25T08:11:27.162Z,10.9
2019-03-25T08:21:27.578Z,14.0
2019-03-25T08:31:26.946Z,11.9
2019-03-25T08:41:26.865Z,11.6
2019-03-25T08:51:27.861Z,10.6
2019-03-25T09:01:26.698Z,9.5
2019-03-25T09:11:26.384Z,8.7
2019-03-25T09:21:26.869Z,8.9
2019-03-25T09:31:36.293Z,10.8
2019-03-25T09:41:26.329Z,12.9
2019-03-25T09:51:26.588Z,12.8
2019-03-25T10:01:27.018Z,14.1
2019-03-25T10:11:26.617Z,11.6
2019-03-25T10:21:28.256Z,10.3
2019-03-25T10:31:25.840Z,12.3
2019-03-25T10:41:26.634Z,14.9
2019-03-25T10:51:26.311Z,13.3
2019-03-25T11:01:26.211Z,9.0
2019-03-25T11:11:26.785Z,7.5
2019-03-25T11:21:26.915Z,9.8
2019-03-25T11:31:26.474Z,9.4
2019-03-25T11:41:26.170Z,8.2
2019-03-25T11:51:26.942Z,9.4
2019-03-25T12:01:27.446Z,8.1
2019-03-25T12:11:27.833Z,9.8
2019-03-25T12:21:28.680Z,9.4
2019-03-25T12:31:26.492Z,10.1
2019-03-25T12:41:27.839Z,11.3
2019-03-25T12:51:30.240Z,12.6
2019-03-25T13:01:26.657Z,12.4
2019-03-25T13:11:28.537Z,11.0
2019-03-25T13:21:26.294Z,7.5
2019-03-25T13:31:26.046Z,7.7
2019-03-25T13:41:27.202Z,7.0
2019-03-25T13:51:25.721Z,6.2
2019-03-25T14:01:27.034Z,6.7
2019-03-25T14:11:27.237Z,8.2
2019-03-25T14:21:26.061Z,10.0
2019-03-25T14:31:27.208Z,7.1
2019-03-25T14:41:28.924Z,7.8
2019-03-25T14:51:27.272Z,7.7
2019-03-25T15:01:26.188Z,8.5
2019-03-25T15:11:26.060Z,8.7
2019-03-25T15:21:28.130Z,9.2
2019-03-25T15:31:25.690Z,9.8
2019-03-25T15:41:28.245Z,10.4
2019-03-25T15:51:27.496Z,10.7
2019-03-25T16:01:26.321Z,9.7
2019-03-25T16:11:27.076Z,12.2
2019-03-25T16:21:25.947Z,10.5
2019-03-25T16:31:26.710Z,11.5
2019-03-25T16:41:28.263Z,11.5
2019-03-25T16:51:25.838Z,11.7
2019-03-25T17:01:26.719Z,11.1
2019-03-25T17:11:26.351Z,7.8
2019-03-25T17:21:27.002Z,7.2
2019-03-25T17:31:26.596Z,7.7
2019-03-25T17:41:26.923Z,7.5
2019-03-25T17:51:27.268Z,8.8
2019-03-25T18:01:31.990Z,11.6
2019-03-25T18:11:26.034Z,10.9
2019-03-25T18:21:26.389Z,14.5
2019-03-25T18:31:26.272Z,13.4
2019-03-25T18:41:26.446Z,9.0
2019-03-25T18:51:27.287Z,8.4
2019-03-25T19:01:26.579Z,7.1
2019-03-25T19:11:30.974Z,5.7
2019-03-25T19:21:28.739Z,6.5
2019-03-25T19:31:26.436Z,6.5
2019-03-25T19:41:31.677Z,4.9
2019-03-25T19:51:27.022Z,5.7
2019-03-25T20:01:28.881Z,4.5
2019-03-25T20:11:26.521Z,5.1
2019-03-25T20:21:26.526Z,5.4
2019-03-25T20:31:26.676Z,6.0
2019-03-25T20:41:26.256Z,4.2
2019-03-25T20:51:31.578Z,6.5
2019-03-25T21:01:26.409Z,5.1
2019-03-25T21:11:25.962Z,4.5
2019-03-25T21:21:25.871Z,5.8
2019-03-25T21:31:26.563Z,5.3
2019-03-25T21:41:27.435Z,5.3
2019-03-25T21:51:29.055Z,6.4
2019-03-25T22:01:27.169Z,6.7
2019-03-25T22:11:26.585Z,6.7
2019-03-25T22:21:26.363Z,9.9
2019-03-25T22:31:28.614Z,7.5
2019-03-25T22:41:27.579Z,8.8
2019-03-25T22:51:26.631Z,8.8
2019-03-25T23:01:26.278Z,9.5
2019-03-25T23:11:26.900Z,8.7
2019-03-25T23:21:27.848Z,11.9
2019-03-25T23:31:28.191Z,14.7
2019-03-25T23:41:26.633Z,15.4
2019-03-25T23:51:26.114Z,14.5
